Main page
METAR-TAF:

METAR-TAF

Airports :

Comandante Gustavo Kraemer Airport

Bagé, Rio Grande do Sul, Brazil

latitude: 31-21S, longitude: 054-07W, elevation: 180 m

Current weather observation

The report was made 58 minutes ago, at 11:00 UTC
Wind 10 kt from the West/Northwest
Temperature 12°C
Humidity 54%
Pressure 1019 hPa
Visibility 10 km or more
no clouds below 1500 m and no cumulonimbus

METAR: SBBG 121100Z AUTO 30010KT CAVOK 12/03 Q1019

Time: 08:58 (11:58 UTC)

Forecast

The report was made 2 hours and 58 minutes ago, at 09:00 UTC
Forecast valid from 12 at 12 UTC to 12 at 24 UTC
Wind 7 kt from the West
Visibility 10 km or more
no clouds below 1500 m and no cumulonimbus

TAF: SBBG 120900Z 1212/1224 27007KT CAVOK TN12/1212Z TX19/1217Z RMK PDY

Weather observations and forecasts of more than 4000 airports (METAR and TAF reports).

The available stations are represented by yellow and red dots on the map.

Hover mouse over dot to see the name of the station.

Then click to see weather observations and forecasts.

To change the map : click on the green buttons with a black cross to zoom in, on the green button with a dash to zoom out, or on the green arrows for adjacent maps.


METAR-TAF: